Humidity-temperature Sensor

Selected Measurement Type: Air Temperature

 
Air Temperature [°C]     6 entries per hour
Showing data from 12/20/2016 (00:00:00 Z) to 12/19/2016 (00:01:00 Z)
Previous Next [ Day | 3-Days | 7-Days ]
First Last
Prev [ Day | 3-Days | 7-Days ] Next
First Last

Start Time:     :
End Time:     :     
Time (in GMT) :00 :50 :40 :30 :20 :10
Previous Next [ Day | 3-Days | 7-Days ]
First Last
Prev [ Day | 3-Days | 7-Days ] Next
First Last


123 => good data
MM => data is determined as missing
-- => data not received/configured
Back to Top Back to Top
12/20/2016 00:00 to 23:10 25.10 24.98 24.98 24.99 24.96 24.91
12/19/2016 23:00 to 22:10 24.99 24.94 24.98 24.96 25.00 25.00
12/19/2016 22:00 to 21:10 25.00 24.98 25.02 25.02 24.94 24.99
12/19/2016 21:00 to 20:10 24.95 24.95 24.99 25.07 25.05 25.09
12/19/2016 20:00 to 19:10 25.06 25.10 25.06 25.05 25.05 24.94
12/19/2016 19:00 to 18:10 24.93 24.85 24.94 25.03 24.92 24.88
12/19/2016 18:00 to 17:10 -- -- -- -- -- --
12/19/2016 17:00 to 16:10 24.69 24.71 24.53 24.67 25.00 24.74
12/19/2016 16:00 to 15:10 24.51 24.50 24.49 24.58 24.48 24.44
12/19/2016 15:00 to 14:10 24.42 24.45 24.47 24.43 24.45 24.49
12/19/2016 14:00 to 13:10 24.44 24.38 24.34 24.30 24.27 24.35
12/19/2016 13:00 to 12:10 24.33 24.24 24.26 24.32 24.31 24.31
12/19/2016 12:00 to 11:10 24.31 24.33 24.31 24.37 24.44 24.41
12/19/2016 11:00 to 10:10 24.34 24.38 24.32 24.39 24.40 24.54
12/19/2016 10:00 to 9:10 24.51 24.55 24.54 24.46 24.58 24.57
12/19/2016 09:00 to 8:10 24.60 24.69 24.74 24.76 24.70 24.71
12/19/2016 08:00 to 7:10 24.69 24.81 24.80 24.80 24.80 24.75
12/19/2016 07:00 to 6:10 24.78 24.80 24.76 24.77 24.78 24.78
12/19/2016 06:00 to 5:10 24.87 24.84 24.89 24.89 24.88 24.81
12/19/2016 05:00 to 4:10 24.88 24.88 24.87 24.84 24.92 24.94
12/19/2016 04:00 to 3:10 24.85 24.90 24.89 24.96 24.92 25.06
12/19/2016 03:00 to 2:10 25.10 25.13 25.18 25.25 25.19 25.21
12/19/2016 02:00 to 1:10 25.22 25.23 25.16 25.16 25.10 25.15
12/19/2016 01:00 to 0:10 25.04 25.07 25.03 25.09 25.08 25.08